Time;durP1;ratioP1;P1;durP2;ratioP2;P2;SDS_P1;SDS_P2;PMS_P1;PMS_P2;Temp;Humidity;BMP_temperature;BMP_pressure;BME280_temperature;BME280_humidity;BME280_pressure;Samples;Min_cycle;Max_cycle;Signal;HPM_P1;HPM_P2
2021/01/15 00:00:44;;;;;;;11.18;8.00;;;2.60;75.10;;;;;;4880496;29;20040;-89
2021/01/15 00:03:09;;;;;;;11.65;7.57;;;2.60;75.10;;;;;;4849959;29;20049;-88
2021/01/15 00:05:39;;;;;;;11.68;7.97;;;2.60;75.10;;;;;;4897320;29;20040;-90
2021/01/15 00:08:06;;;;;;;13.10;9.00;;;2.60;75.10;;;;;;4865253;29;20036;-89
2021/01/15 00:10:32;;;;;;;13.40;9.90;;;2.60;75.10;;;;;;4881031;29;20048;-89
2021/01/15 00:12:57;;;;;;;14.98;9.55;;;2.60;75.20;;;;;;4895905;29;20054;-89
2021/01/15 00:15:23;;;;;;;16.67;11.05;;;2.50;75.20;;;;;;4849826;29;20044;-89
2021/01/15 00:17:49;;;;;;;18.60;11.57;;;2.50;75.80;;;;;;4896665;29;20491;-88
2021/01/15 00:20:14;;;;;;;16.13;10.50;;;2.50;75.30;;;;;;4880286;29;20128;-89
2021/01/15 00:22:43;;;;;;;16.90;10.23;;;2.60;75.50;;;;;;4880068;29;20043;-88
2021/01/15 00:25:12;;;;;;;15.07;10.68;;;2.50;75.40;;;;;;4880751;29;20040;-89
2021/01/15 00:27:39;;;;;;;14.98;10.90;;;2.60;75.50;;;;;;4895765;29;20044;-89
2021/01/15 00:30:09;;;;;;;17.67;11.90;;;2.60;75.50;;;;;;4895443;29;20075;-89
2021/01/15 00:32:38;;;;;;;17.15;11.63;;;2.50;75.50;;;;;;4880368;29;20214;-89
2021/01/15 00:35:08;;;;;;;16.08;10.82;;;2.50;76.20;;;;;;4882636;29;20394;-89
2021/01/15 00:37:37;;;;;;;17.13;11.95;;;2.50;75.60;;;;;;4883983;29;20391;-88
2021/01/15 00:40:02;;;;;;;;;;;2.50;75.60;;;;;;4901096;29;20044;-89
2021/01/15 00:42:28;;;;;;;16.23;11.43;;;2.50;75.60;;;;;;4883926;29;20282;-89
2021/01/15 00:44:55;;;;;;;15.98;10.88;;;2.50;75.60;;;;;;4883511;29;20047;-89
2021/01/15 00:47:22;;;;;;;15.18;10.50;;;2.50;75.70;;;;;;4883975;29;20092;-89
2021/01/15 00:49:48;;;;;;;14.40;10.05;;;2.50;75.70;;;;;;4883552;29;20109;-89
2021/01/15 00:52:16;;;;;;;14.80;10.63;;;2.50;75.70;;;;;;4899069;29;20048;-89
2021/01/15 00:54:41;;;;;;;14.10;10.27;;;2.50;75.80;;;;;;4900356;29;20047;-89
2021/01/15 00:57:07;;;;;;;17.42;10.77;;;2.50;75.80;;;;;;4883459;29;20040;-88
2021/01/15 00:59:33;;;;;;;15.38;10.85;;;2.50;75.80;;;;;;4883713;29;20474;-89
2021/01/15 01:01:58;;;;;;;17.25;11.77;;;2.50;75.80;;;;;;4883359;29;20571;-89
2021/01/15 01:04:24;;;;;;;16.48;11.30;;;2.50;75.80;;;;;;4883395;29;20044;-88
2021/01/15 01:06:49;;;;;;;17.98;11.98;;;2.50;75.90;;;;;;4883067;29;20044;-89
2021/01/15 01:09:15;;;;;;;17.10;11.48;;;2.50;76.00;;;;;;4883466;29;20051;-89
2021/01/15 01:11:41;;;;;;;16.50;10.38;;;2.50;76.00;;;;;;4883224;29;20197;-88
2021/01/15 01:14:06;;;;;;;16.00;9.85;;;2.50;75.90;;;;;;4898376;29;20049;-89
2021/01/15 01:16:32;;;;;;;14.35;10.13;;;2.50;76.00;;;;;;4883430;29;20048;-88
2021/01/15 01:18:58;;;;;;;15.50;10.68;;;2.50;75.90;;;;;;4883314;29;20566;-88
2021/01/15 01:21:25;;;;;;;17.38;10.68;;;2.50;75.90;;;;;;4898707;29;20083;-88
2021/01/15 01:23:51;;;;;;;14.13;9.95;;;2.50;76.50;;;;;;4882796;29;20048;-89
2021/01/15 01:26:17;;;;;;;14.45;9.45;;;2.50;75.90;;;;;;4852306;29;20048;-88
2021/01/15 01:28:45;;;;;;;15.55;10.20;;;2.40;75.90;;;;;;4883072;29;20136;-88
2021/01/15 01:31:15;;;;;;;15.20;10.13;;;2.50;75.90;;;;;;4899915;29;20379;-89
2021/01/15 01:33:41;;;;;;;16.42;10.52;;;2.40;75.90;;;;;;4898791;29;20048;-89
2021/01/15 01:36:08;;;;;;;14.95;10.82;;;2.50;75.90;;;;;;4898284;29;20491;-88
2021/01/15 01:41:02;;;;;;;15.38;10.50;;;2.40;75.90;;;;;;4917362;29;20056;-89
2021/01/15 01:43:27;;;;;;;16.65;10.60;;;2.40;75.90;;;;;;4902018;29;20119;-89
2021/01/15 01:45:54;;;;;;;14.45;9.77;;;2.40;75.90;;;;;;4901217;29;20063;-88
2021/01/15 01:48:21;;;;;;;16.25;9.93;;;2.40;75.90;;;;;;4901673;29;20054;-89
2021/01/15 01:50:47;;;;;;;14.63;10.07;;;2.40;75.90;;;;;;4870485;29;20043;-89
2021/01/15 01:53:16;;;;;;;15.93;10.13;;;2.40;75.90;;;;;;4870709;29;20497;-89
2021/01/15 01:55:42;;;;;;;13.57;9.05;;;2.40;76.00;;;;;;4886554;29;20051;-89
2021/01/15 01:58:10;;;;;;;13.57;9.68;;;2.40;76.00;;;;;;4870159;29;20406;-88
2021/01/15 02:00:39;;;;;;;13.13;9.10;;;2.40;76.00;;;;;;4886094;29;20550;-89
2021/01/15 02:03:05;;;;;;;13.48;8.68;;;2.40;76.60;;;;;;4885568;29;20048;-89
2021/01/15 02:05:31;;;;;;;15.25;9.82;;;2.40;76.00;;;;;;4901530;29;20399;-89
2021/01/15 02:07:56;;;;;;;14.40;9.20;;;2.40;76.00;;;;;;4885405;29;20052;-89
2021/01/15 02:10:47;;;;;;;12.93;8.85;;;2.40;76.00;;;;;;4885700;29;20044;-89
2021/01/15 02:13:42;;;;;;;12.02;8.65;;;2.30;75.90;;;;;;4917934;29;20032;-89
2021/01/15 02:16:21;;;;;;;11.95;7.97;;;2.30;76.50;;;;;;4901015;29;20060;-89
2021/01/15 02:19:19;;;;;;;12.60;8.65;;;2.30;75.90;;;;;;4901211;29;20565;-90
2021/01/15 02:22:09;;;;;;;13.23;8.57;;;2.30;75.90;;;;;;4901233;29;20070;-90
2021/01/15 02:24:35;;;;;;;12.48;7.70;;;2.30;75.90;;;;;;4901190;29;20155;-89
2021/01/15 02:27:22;;;;;;;14.63;8.80;;;2.30;75.80;;;;;;4900955;29;20494;-89
2021/01/15 02:30:22;;;;;;;13.20;8.68;;;2.30;75.90;;;;;;4900944;29;20500;-89
2021/01/15 02:33:26;;;;;;;12.95;8.90;;;2.30;75.90;;;;;;4918214;29;20192;-90
2021/01/15 02:36:08;;;;;;;12.85;8.75;;;2.30;75.90;;;;;;4918143;29;20060;-90
2021/01/15 02:38:58;;;;;;;13.48;8.93;;;2.30;76.00;;;;;;4917895;29;20035;-90
2021/01/15 02:41:27;;;;;;;14.32;9.20;;;2.30;76.00;;;;;;4901352;29;20044;-90
2021/01/15 02:43:54;;;;;;;;;;;2.20;76.00;;;;;;4901304;29;20044;-89
2021/01/15 02:46:30;;;;;;;14.80;8.65;;;2.20;76.00;;;;;;4901048;29;19962;-91
2021/01/15 02:48:58;;;;;;;11.95;8.27;;;2.20;76.00;;;;;;4900769;29;20068;-89
2021/01/15 02:51:25;;;;;;;14.13;9.18;;;2.20;76.00;;;;;;4900985;29;20111;-90
2021/01/15 02:53:50;;;;;;;12.85;9.10;;;2.20;76.00;;;;;;4885251;29;20060;-90
2021/01/15 02:56:16;;;;;;;11.15;8.02;;;2.10;76.00;;;;;;4885213;29;20098;-90
2021/01/15 02:58:42;;;;;;;13.55;8.48;;;2.10;76.60;;;;;;4884277;29;20388;-90
2021/01/15 03:01:08;;;;;;;12.63;8.68;;;2.10;76.00;;;;;;4885267;29;20040;-90
2021/01/15 03:03:45;;;;;;;15.10;9.70;;;2.10;76.00;;;;;;4885117;29;20162;-91
2021/01/15 03:06:15;;;;;;;13.05;8.70;;;2.10;76.00;;;;;;4900227;29;20036;-90
2021/01/15 03:08:43;;;;;;;13.20;8.52;;;2.10;76.00;;;;;;4900260;29;20510;-90
2021/01/15 03:11:09;;;;;;;11.85;8.20;;;2.10;76.00;;;;;;4884682;29;20048;-90
2021/01/15 03:13:35;;;;;;;13.52;8.93;;;2.10;76.00;;;;;;4869393;29;20394;-90
2021/01/15 03:16:03;;;;;;;11.40;8.48;;;2.10;76.00;;;;;;4869083;29;20070;-90
2021/01/15 03:18:33;;;;;;;13.27;8.18;;;2.10;76.00;;;;;;4900337;29;20175;-91
2021/01/15 03:21:01;;;;;;;12.18;8.57;;;2.00;75.90;;;;;;4884767;29;20123;-90
2021/01/15 03:23:27;;;;;;;12.10;8.07;;;2.00;75.90;;;;;;4884869;29;20103;-91
2021/01/15 03:25:54;;;;;;;13.70;8.63;;;2.10;75.90;;;;;;4884694;29;20437;-90
2021/01/15 03:28:19;;;;;;;11.10;7.82;;;2.00;75.90;;;;;;4899926;29;20060;-91
2021/01/15 03:30:45;;;;;;;14.07;8.70;;;2.00;75.90;;;;;;4884472;29;20123;-91
2021/01/15 03:33:11;;;;;;;15.00;9.00;;;2.00;75.80;;;;;;4884313;29;20036;-91
2021/01/15 03:35:36;;;;;;;13.27;9.18;;;2.00;75.80;;;;;;4869108;29;20036;-90
2021/01/15 03:38:04;;;;;;;15.48;9.10;;;2.00;75.80;;;;;;4899900;29;20071;-91
2021/01/15 03:40:32;;;;;;;12.32;9.18;;;2.00;75.90;;;;;;4900032;29;20052;-90
2021/01/15 03:42:58;;;;;;;13.23;9.00;;;2.00;75.90;;;;;;4899972;29;20596;-91
2021/01/15 03:45:26;;;;;;;12.60;9.25;;;2.00;75.90;;;;;;4899666;29;20047;-91
2021/01/15 03:47:51;;;;;;;12.60;8.10;;;2.00;75.90;;;;;;4899974;29;20043;-90
2021/01/15 03:50:17;;;;;;;11.20;8.25;;;2.00;75.90;;;;;;4899622;29;20036;-91
2021/01/15 03:52:45;;;;;;;14.88;9.95;;;2.00;75.90;;;;;;4899724;29;20072;-90
2021/01/15 03:55:11;;;;;;;14.50;9.65;;;2.00;75.90;;;;;;4884193;29;20521;-90
2021/01/15 03:57:36;;;;;;;15.23;10.02;;;1.90;75.90;;;;;;4884261;29;20080;-90
2021/01/15 04:00:05;;;;;;;13.68;9.80;;;2.00;76.00;;;;;;4883798;29;20099;-90
2021/01/15 04:02:31;;;;;;;19.13;10.32;;;1.90;76.00;;;;;;4884073;29;20048;-90
2021/01/15 04:04:57;;;;;;;18.13;10.95;;;1.90;76.00;;;;;;4899766;29;20040;-90
2021/01/15 04:07:22;;;;;;;14.57;10.27;;;1.90;76.20;;;;;;4899523;29;20047;-91
2021/01/15 04:09:48;;;;;;;16.42;11.38;;;1.90;76.20;;;;;;4883678;29;20044;-90
2021/01/15 04:12:14;;;;;;;15.80;9.90;;;1.90;76.90;;;;;;4868103;29;20037;-90
2021/01/15 04:14:41;;;;;;;17.10;10.85;;;1.90;76.40;;;;;;4884002;29;20040;-90
2021/01/15 04:17:07;;;;;;;16.35;9.70;;;1.90;76.50;;;;;;4883485;29;20044;-90
2021/01/15 04:19:33;;;;;;;15.40;10.00;;;1.90;76.50;;;;;;4868580;29;20044;-90
2021/01/15 04:21:58;;;;;;;14.05;9.70;;;1.90;76.60;;;;;;4899707;29;20047;-90
2021/01/15 04:24:24;;;;;;;16.50;11.07;;;2.00;76.70;;;;;;4867852;29;20483;-90
2021/01/15 04:26:58;;;;;;;15.75;10.52;;;2.00;76.80;;;;;;4899386;29;20036;-90
2021/01/15 04:29:25;;;;;;;14.43;10.20;;;2.00;76.90;;;;;;4883515;29;20088;-90
2021/01/15 04:31:51;;;;;;;16.60;10.95;;;2.00;76.90;;;;;;4899401;29;20115;-90
2021/01/15 04:34:17;;;;;;;16.10;10.80;;;2.00;77.00;;;;;;4883579;29;20524;-89
2021/01/15 04:36:43;;;;;;;15.27;10.77;;;2.00;76.90;;;;;;4899224;29;20036;-90
2021/01/15 04:39:09;;;;;;;14.80;10.30;;;2.00;77.00;;;;;;4867836;29;20063;-89
2021/01/15 04:41:35;;;;;;;15.80;9.82;;;2.00;77.00;;;;;;4899168;29;20032;-89
2021/01/15 04:44:02;;;;;;;16.33;11.43;;;2.00;77.00;;;;;;4916034;29;20124;-91
2021/01/15 04:46:28;;;;;;;16.40;10.70;;;2.10;77.20;;;;;;4883462;29;20139;-90
2021/01/15 04:48:55;;;;;;;17.75;12.07;;;2.10;77.20;;;;;;4883542;29;20044;-89
2021/01/15 04:51:23;;;;;;;14.18;10.05;;;2.00;77.30;;;;;;4883202;29;20044;-89
2021/01/15 04:54:05;;;;;;;13.98;10.20;;;2.00;77.30;;;;;;4883717;29;20044;-90
2021/01/15 04:56:34;;;;;;;14.20;9.55;;;2.10;77.40;;;;;;4899152;29;20037;-90
2021/01/15 04:59:02;;;;;;;13.60;9.75;;;2.10;77.40;;;;;;4899045;29;20032;-89
2021/01/15 05:01:42;;;;;;;14.47;10.23;;;2.10;77.40;;;;;;4898866;29;20040;-89
2021/01/15 05:04:16;;;;;;;13.95;10.05;;;2.10;77.40;;;;;;4882049;29;20047;-89
2021/01/15 05:06:50;;;;;;;16.83;10.98;;;2.10;78.00;;;;;;4915475;29;20046;-89
2021/01/15 05:09:17;;;;;;;16.05;11.73;;;2.10;77.50;;;;;;4879951;29;20039;-89
2021/01/15 05:11:44;;;;;;;15.75;10.52;;;2.20;77.70;;;;;;4899266;29;20611;-89
2021/01/15 05:14:12;;;;;;;14.82;10.10;;;2.20;77.70;;;;;;4883027;29;20032;-89
2021/01/15 05:16:39;;;;;;;16.80;11.40;;;2.20;77.60;;;;;;4883418;29;20508;-89
2021/01/15 05:19:06;;;;;;;15.75;10.93;;;2.20;77.60;;;;;;4898883;29;20479;-89
2021/01/15 05:21:34;;;;;;;16.70;10.57;;;2.20;77.70;;;;;;4884945;29;20048;-89
2021/01/15 05:24:01;;;;;;;18.07;11.50;;;2.20;77.70;;;;;;4902278;29;20457;-89
2021/01/15 05:26:27;;;;;;;16.02;10.35;;;2.20;77.70;;;;;;4886571;29;20276;-90
2021/01/15 05:28:53;;;;;;;14.75;10.57;;;2.20;77.70;;;;;;4886441;29;20040;-89
2021/01/15 05:31:19;;;;;;;15.00;10.48;;;2.20;77.70;;;;;;4886423;29;20040;-90
2021/01/15 05:34:08;;;;;;;15.07;11.23;;;2.30;78.40;;;;;;4902229;29;20092;-89
2021/01/15 05:36:35;;;;;;;14.63;10.90;;;2.30;77.80;;;;;;4902067;29;20180;-89
2021/01/15 05:39:15;;;;;;;17.38;12.02;;;2.30;77.80;;;;;;4901786;29;20060;-89
2021/01/15 05:41:42;;;;;;;17.20;12.07;;;2.30;78.00;;;;;;4901786;29;20491;-89
2021/01/15 05:44:08;;;;;;;17.90;11.57;;;2.30;78.00;;;;;;4886207;29;20044;-89
2021/01/15 05:46:34;;;;;;;17.83;12.00;;;2.30;78.00;;;;;;4886256;29;20501;-89
2021/01/15 05:49:09;;;;;;;16.60;12.00;;;2.30;78.10;;;;;;4870729;29;20048;-89
2021/01/15 05:51:36;;;;;;;20.27;14.10;;;2.30;78.20;;;;;;4870291;29;20190;-89
2021/01/15 05:54:04;;;;;;;18.25;12.82;;;2.30;78.30;;;;;;4885942;29;20046;-89
2021/01/15 05:56:41;;;;;;;15.18;11.45;;;2.20;78.40;;;;;;4917095;29;20028;-90
2021/01/15 05:59:09;;;;;;;19.88;12.50;;;2.30;78.40;;;;;;4901509;29;20036;-89
2021/01/15 06:01:44;;;;;;;17.90;12.52;;;2.30;78.40;;;;;;4901400;29;20044;-89
2021/01/15 06:04:11;;;;;;;19.48;13.10;;;2.30;78.40;;;;;;4901578;29;20032;-88
2021/01/15 06:06:37;;;;;;;18.17;13.15;;;2.30;78.40;;;;;;4883816;29;20051;-89
2021/01/15 06:09:05;;;;;;;18.67;12.65;;;2.30;78.50;;;;;;4882688;29;20399;-88
2021/01/15 06:11:32;;;;;;;21.20;14.15;;;2.30;78.50;;;;;;4899328;29;20035;-89
2021/01/15 06:13:57;;;;;;;16.48;11.57;;;2.30;78.60;;;;;;4882573;29;20089;-89
2021/01/15 06:16:23;;;;;;;18.48;12.57;;;2.30;78.50;;;;;;4866883;29;20036;-89
2021/01/15 06:18:59;;;;;;;20.23;12.77;;;2.30;78.60;;;;;;4866948;29;20076;-89
2021/01/15 06:21:34;;;;;;;16.90;11.30;;;2.30;78.70;;;;;;4882394;29;20517;-87
2021/01/15 06:24:08;;;;;;;16.75;11.23;;;2.30;78.70;;;;;;4882058;29;20048;-88
2021/01/15 06:26:40;;;;;;;19.85;13.32;;;2.30;78.60;;;;;;4881579;29;20114;-88
2021/01/15 06:29:12;;;;;;;18.85;12.27;;;2.30;78.80;;;;;;4881996;29;20391;-88
2021/01/15 06:31:46;;;;;;;19.45;12.07;;;2.30;78.80;;;;;;4881432;29;20084;-88
2021/01/15 06:34:13;;;;;;;19.15;13.27;;;2.30;78.90;;;;;;4898670;29;20033;-88
2021/01/15 06:36:54;;;;;;;19.55;12.95;;;2.30;78.80;;;;;;4866135;29;20040;-89
2021/01/15 06:39:21;;;;;;;19.95;13.40;;;2.30;79.00;;;;;;4881511;29;20096;-88
2021/01/15 06:41:59;;;;;;;19.50;13.35;;;2.40;79.00;;;;;;4866244;29;20065;-88
2021/01/15 06:44:25;;;;;;;20.67;12.52;;;2.30;78.90;;;;;;4881580;29;20076;-89
2021/01/15 06:46:53;;;;;;;18.58;12.95;;;2.30;78.90;;;;;;4866352;29;20405;-88
2021/01/15 06:49:31;;;;;;;19.52;14.02;;;2.30;78.90;;;;;;4866282;29;20223;-88
2021/01/15 06:51:59;;;;;;;17.05;12.18;;;2.40;79.50;;;;;;4881563;29;20123;-89
2021/01/15 06:54:35;;;;;;;18.02;12.55;;;2.40;78.80;;;;;;4881378;29;20448;-90
2021/01/15 06:57:25;;;;;;;18.80;13.02;;;2.40;78.80;;;;;;4881897;29;20455;-90
2021/01/15 06:59:51;;;;;;;17.52;12.00;;;2.30;78.80;;;;;;4881646;29;20509;-90
2021/01/15 07:02:23;;;;;;;19.50;11.40;;;2.40;78.70;;;;;;4866271;29;20122;-89
2021/01/15 07:05:00;;;;;;;16.08;11.45;;;2.40;78.70;;;;;;4898391;29;20096;-90
2021/01/15 07:07:28;;;;;;;18.80;12.65;;;2.40;78.60;;;;;;4881534;29;20101;-90
2021/01/15 07:09:54;;;;;;;16.58;12.27;;;2.40;78.60;;;;;;4897092;29;20040;-89
2021/01/15 07:12:22;;;;;;;18.67;13.30;;;2.40;78.60;;;;;;4865855;29;20392;-90
2021/01/15 07:14:51;;;;;;;19.05;12.48;;;2.40;79.20;;;;;;4881487;29;20368;-89
2021/01/15 07:17:33;;;;;;;22.98;14.63;;;2.40;78.70;;;;;;4881435;29;20043;-90
2021/01/15 07:20:12;;;;;;;22.35;14.30;;;2.40;78.80;;;;;;4893191;29;20553;-90
2021/01/15 07:22:51;;;;;;;23.83;15.90;;;2.40;78.90;;;;;;4899697;29;20040;-89
2021/01/15 07:25:18;;;;;;;26.70;16.27;;;2.40;79.20;;;;;;4899890;29;20044;-90
2021/01/15 07:27:44;;;;;;;24.02;16.23;;;2.30;79.40;;;;;;4916545;29;20064;-89
2021/01/15 07:30:23;;;;;;;21.42;14.80;;;2.40;79.50;;;;;;4900275;29;20044;-89
2021/01/15 07:32:50;;;;;;;;;;;2.40;79.50;;;;;;4899905;29;20036;-88
2021/01/15 07:35:18;;;;;;;22.70;15.57;;;2.30;79.40;;;;;;4916528;29;20326;-89
2021/01/15 07:37:44;;;;;;;18.35;13.32;;;2.30;79.40;;;;;;4899485;29;20048;-85
2021/01/15 07:40:20;;;;;;;19.77;12.90;;;2.30;79.40;;;;;;4898827;29;20094;-85
2021/01/15 07:42:49;;;;;;;19.13;13.30;;;2.30;79.30;;;;;;4883158;29;20044;-85
2021/01/15 07:45:23;;;;;;;24.35;16.50;;;2.30;79.20;;;;;;4898226;29;20044;-85
2021/01/15 07:48:15;;;;;;;23.23;15.80;;;2.30;79.40;;;;;;4898791;29;20064;-85
2021/01/15 07:50:46;;;;;;;21.67;14.15;;;2.30;79.40;;;;;;4896394;29;20048;-85
2021/01/15 07:53:23;;;;;;;22.10;14.35;;;2.30;79.40;;;;;;4915769;29;20047;-85
2021/01/15 07:55:59;;;;;;;22.73;14.07;;;2.30;79.40;;;;;;4931102;23;20047;-92
2021/01/15 07:58:37;;;;;;;22.77;13.82;;;2.40;79.30;;;;;;4919458;29;20124;-94
2021/01/15 08:01:13;;;;;;;22.67;14.82;;;2.40;79.30;;;;;;4919404;29;20036;-94
2021/01/15 08:03:43;;;;;;;22.63;15.73;;;2.40;79.30;;;;;;4904473;29;20483;-94
2021/01/15 08:06:10;;;;;;;21.10;14.80;;;2.40;79.40;;;;;;4904636;29;20409;-94
2021/01/15 08:08:41;;;;;;;21.50;14.50;;;2.40;79.30;;;;;;4904555;29;20478;-91
2021/01/15 08:11:11;;;;;;;22.77;14.63;;;2.40;79.30;;;;;;4905322;29;20179;-91
2021/01/15 08:13:37;;;;;;;21.77;14.02;;;2.40;79.40;;;;;;4904694;29;20517;-92
2021/01/15 08:16:08;;;;;;;19.08;13.07;;;2.50;79.30;;;;;;4903633;29;20040;-90
2021/01/15 08:18:34;;;;;;;20.25;14.43;;;2.50;79.20;;;;;;4902455;29;20051;-89
2021/01/15 08:21:01;;;;;;;23.50;15.25;;;2.50;79.10;;;;;;4900544;29;20032;-90
2021/01/15 08:23:28;;;;;;;22.85;15.10;;;2.50;79.10;;;;;;4886796;29;20067;-89
2021/01/15 08:26:02;;;;;;;21.35;14.95;;;2.50;79.10;;;;;;4902174;29;20533;-89
2021/01/15 08:28:28;;;;;;;23.05;14.95;;;2.50;79.10;;;;;;4917743;29;20032;-88
2021/01/15 08:31:00;;;;;;;23.95;14.77;;;2.50;79.70;;;;;;4902363;29;20568;-90
2021/01/15 08:33:27;;;;;;;22.00;15.65;;;2.50;79.10;;;;;;4918157;29;20493;-90
2021/01/15 08:35:55;;;;;;;22.30;14.85;;;2.40;79.00;;;;;;4902080;29;20062;-90
2021/01/15 08:38:32;;;;;;;23.98;14.88;;;2.50;79.20;;;;;;4918185;29;20032;-89
2021/01/15 08:40:59;;;;;;;22.38;15.43;;;2.50;79.20;;;;;;4918448;29;20047;-90
2021/01/15 08:43:26;;;;;;;26.33;15.98;;;2.40;79.10;;;;;;4902484;29;20043;-90
2021/01/15 08:45:52;;;;;;;24.58;16.10;;;2.50;79.20;;;;;;4917811;29;20047;-90
2021/01/15 08:48:21;;;;;;;27.02;17.27;;;2.50;79.20;;;;;;4902517;29;20127;-90
2021/01/15 08:50:47;;;;;;;34.65;18.70;;;2.50;79.20;;;;;;4917514;29;20063;-90
2021/01/15 08:53:17;;;;;;;24.63;15.90;;;2.50;79.40;;;;;;4918122;29;20134;-90
2021/01/15 08:55:45;;;;;;;25.05;16.45;;;2.50;79.40;;;;;;4919336;29;20131;-90
2021/01/15 08:58:11;;;;;;;25.48;16.90;;;2.50;79.40;;;;;;4905750;29;20087;-90
2021/01/15 09:00:37;;;;;;;26.00;16.83;;;2.50;79.50;;;;;;4921262;29;20054;-90
2021/01/15 09:03:05;;;;;;;24.40;16.10;;;2.50;79.40;;;;;;4906121;29;20047;-90
2021/01/15 09:05:32;;;;;;;29.48;18.73;;;2.50;79.40;;;;;;4906033;29;20055;-90
2021/01/15 09:08:03;;;;;;;35.33;21.42;;;2.50;79.40;;;;;;4905765;29;20039;-90
2021/01/15 09:10:30;;;;;;;31.17;20.02;;;2.50;79.60;;;;;;4921217;29;20462;-90
2021/01/15 09:13:03;;;;;;;28.52;18.60;;;2.50;79.70;;;;;;4920960;29;20036;-88
2021/01/15 09:15:30;;;;;;;31.08;20.13;;;2.50;79.80;;;;;;4937872;29;20521;-86
2021/01/15 09:17:57;;;;;;;29.92;19.30;;;2.50;79.80;;;;;;4920397;29;20032;-90
2021/01/15 09:20:23;;;;;;;30.38;19.95;;;2.40;79.80;;;;;;4906474;29;20043;-92
2021/01/15 09:22:49;;;;;;;29.23;18.48;;;2.50;79.90;;;;;;4907130;29;20398;-91
2021/01/15 09:25:15;;;;;;;29.27;18.13;;;2.50;79.90;;;;;;4909611;29;20044;-90
2021/01/15 09:27:42;;;;;;;26.95;17.92;;;2.50;79.80;;;;;;4888796;29;20503;-90
2021/01/15 09:30:09;;;;;;;30.95;18.48;;;2.50;79.70;;;;;;4888237;29;20103;-90
2021/01/15 09:32:34;;;;;;;27.38;17.58;;;2.50;79.70;;;;;;4886603;29;20047;-89
2021/01/15 09:35:00;;;;;;;27.08;17.52;;;2.60;79.70;;;;;;4886387;29;20040;-89
2021/01/15 09:37:26;;;;;;;27.38;18.08;;;2.60;79.60;;;;;;4888179;29;20032;-90
2021/01/15 09:39:51;;;;;;;36.30;22.55;;;2.60;79.60;;;;;;4904934;29;20051;-90
2021/01/15 09:42:17;;;;;;;32.40;20.88;;;2.60;79.80;;;;;;4889622;29;20126;-89
2021/01/15 09:44:43;;;;;;;31.17;20.92;;;2.60;79.90;;;;;;4920531;29;20063;-90
2021/01/15 09:47:09;;;;;;;30.63;20.15;;;2.60;79.90;;;;;;4889783;29;20486;-90
2021/01/15 09:49:35;;;;;;;29.48;19.98;;;2.60;79.90;;;;;;4889678;29;20055;-89
2021/01/15 09:52:02;;;;;;;33.75;21.13;;;2.60;79.80;;;;;;4920242;29;20027;-89
2021/01/15 09:54:28;;;;;;;34.53;21.75;;;2.60;79.80;;;;;;4904796;29;20048;-90
2021/01/15 09:56:54;;;;;;;33.22;20.63;;;2.60;79.90;;;;;;4904768;29;20073;-89
2021/01/15 09:59:20;;;;;;;32.80;21.25;;;2.60;80.00;;;;;;4905089;29;20444;-89
2021/01/15 10:01:47;;;;;;;34.22;21.42;;;2.60;80.10;;;;;;4904990;29;20046;-89
2021/01/15 10:04:16;;;;;;;37.20;22.90;;;2.60;80.10;;;;;;4890025;29;20036;-90
2021/01/15 10:06:43;;;;;;;40.42;23.70;;;2.60;80.20;;;;;;4920162;29;20035;-90
2021/01/15 10:09:11;;;;;;;37.53;22.95;;;2.60;80.80;;;;;;4905043;29;20079;-90
2021/01/15 10:11:42;;;;;;;35.35;22.48;;;2.60;80.40;;;;;;4890388;29;20043;-91
2021/01/15 10:14:09;;;;;;;33.65;20.90;;;2.60;80.40;;;;;;4921374;29;20447;-90
2021/01/15 10:16:43;;;;;;;35.50;22.20;;;2.60;80.30;;;;;;4904628;29;20040;-91
2021/01/15 10:19:09;;;;;;;35.78;22.55;;;2.60;80.30;;;;;;4920677;29;20065;-90
2021/01/15 10:21:37;;;;;;;33.25;20.92;;;2.60;80.20;;;;;;4905563;29;20035;-93
2021/01/15 10:24:03;;;;;;;33.33;21.75;;;2.60;80.30;;;;;;4906060;29;20051;-92
2021/01/15 10:26:34;;;;;;;33.38;20.70;;;2.70;80.30;;;;;;4921521;29;20063;-93
2021/01/15 10:29:08;;;;;;;34.53;21.90;;;2.70;81.00;;;;;;4905811;29;20493;-91
2021/01/15 10:31:34;;;;;;;33.33;22.15;;;2.70;80.30;;;;;;4921730;29;20055;-91
2021/01/15 10:34:02;;;;;;;31.17;20.38;;;2.70;80.20;;;;;;4921696;29;20032;-92
2021/01/15 10:36:28;;;;;;;32.17;20.80;;;2.80;80.80;;;;;;4906122;29;20126;-93
2021/01/15 10:38:54;;;;;;;31.13;19.05;;;2.70;80.10;;;;;;4890522;29;20092;-93
2021/01/15 10:41:33;;;;;;;29.60;18.48;;;2.80;80.10;;;;;;4902684;29;20036;-92
2021/01/15 10:44:00;;;;;;;28.55;19.02;;;2.80;80.00;;;;;;4902857;29;20148;-92
2021/01/15 10:46:29;;;;;;;32.65;20.40;;;2.80;79.80;;;;;;4902767;29;20040;-93
2021/01/15 10:48:55;;;;;;;30.67;18.90;;;2.80;79.80;;;;;;4902371;29;20438;-93
2021/01/15 10:51:20;;;;;;;27.02;18.27;;;2.80;79.80;;;;;;4902622;29;20040;-93
2021/01/15 10:53:49;;;;;;;30.27;18.80;;;2.80;79.70;;;;;;4902279;29;20044;-92
2021/01/15 10:56:14;;;;;;;27.80;17.73;;;2.80;79.70;;;;;;4887144;29;20040;-93
2021/01/15 10:58:40;;;;;;;30.63;18.25;;;2.90;79.70;;;;;;4886494;29;20036;-92
2021/01/15 11:01:06;;;;;;;28.13;17.73;;;2.90;79.70;;;;;;4870693;29;20040;-91
2021/01/15 11:03:31;;;;;;;28.17;18.40;;;2.90;79.60;;;;;;4870302;29;20088;-92
2021/01/15 11:05:57;;;;;;;29.02;18.30;;;2.90;79.60;;;;;;4901274;29;20039;-93
2021/01/15 11:08:23;;;;;;;26.05;17.02;;;2.90;79.60;;;;;;4870430;29;20055;-90
2021/01/15 11:10:48;;;;;;;37.17;21.67;;;2.90;79.50;;;;;;4869892;29;20051;-91
2021/01/15 11:13:14;;;;;;;29.73;18.48;;;2.90;80.10;;;;;;4869766;29;20040;-92
2021/01/15 11:15:40;;;;;;;29.85;18.52;;;2.90;79.60;;;;;;4901011;29;20044;-92
2021/01/15 11:18:09;;;;;;;28.67;17.00;;;3.00;79.60;;;;;;4900503;29;20036;-92
2021/01/15 11:20:35;;;;;;;29.38;18.65;;;3.00;79.50;;;;;;4885374;29;20125;-91
2021/01/15 11:23:00;;;;;;;28.42;17.90;;;3.00;79.60;;;;;;4869622;29;20044;-92
2021/01/15 11:25:26;;;;;;;28.98;17.67;;;3.00;79.60;;;;;;4885100;29;20048;-92
2021/01/15 11:27:52;;;;;;;28.23;16.88;;;3.00;79.50;;;;;;4884907;29;20076;-92
2021/01/15 11:30:18;;;;;;;26.23;16.52;;;3.00;79.40;;;;;;4885280;29;20040;-92
2021/01/15 11:32:44;;;;;;;23.10;14.85;;;3.00;79.40;;;;;;4893570;29;20584;-92
2021/01/15 11:35:10;;;;;;;21.63;13.93;;;3.10;79.40;;;;;;4895365;29;20082;-92
2021/01/15 11:37:36;;;;;;;22.27;14.52;;;3.10;79.30;;;;;;4884769;29;20541;-92
2021/01/15 11:40:05;;;;;;;23.23;15.00;;;3.10;79.20;;;;;;4899769;29;20032;-92
2021/01/15 11:42:30;;;;;;;22.05;13.70;;;3.10;79.10;;;;;;4900068;29;20161;-91
2021/01/15 11:44:56;;;;;;;23.85;15.50;;;3.20;79.10;;;;;;4884352;29;20541;-92
2021/01/15 11:47:22;;;;;;;29.33;18.50;;;3.20;79.00;;;;;;4869125;29;20040;-91
2021/01/15 11:49:48;;;;;;;26.58;16.85;;;3.10;78.90;;;;;;4884074;29;20040;-91
2021/01/15 11:52:14;;;;;;;24.38;15.75;;;3.20;78.90;;;;;;4884289;29;20119;-92
2021/01/15 11:54:40;;;;;;;23.88;14.98;;;3.20;78.90;;;;;;4884190;29;20509;-91
2021/01/15 11:57:05;;;;;;;24.73;15.63;;;3.20;78.80;;;;;;4899285;29;20036;-92
2021/01/15 11:59:31;;;;;;;24.55;15.75;;;3.20;78.80;;;;;;4868703;29;20047;-91
2021/01/15 12:02:02;;;;;;;30.48;17.98;;;3.20;78.80;;;;;;4884335;29;20040;-92
2021/01/15 12:04:28;;;;;;;34.42;19.85;;;3.20;78.80;;;;;;4899906;29;20036;-92
2021/01/15 12:07:00;;;;;;;32.92;19.55;;;3.20;78.90;;;;;;4899461;29;20451;-89
2021/01/15 12:09:25;;;;;;;34.85;20.95;;;3.20;78.90;;;;;;4899517;29;20510;-92
2021/01/15 12:11:51;;;;;;;33.17;20.23;;;3.20;79.00;;;;;;4884408;29;20046;-92
2021/01/15 12:14:17;;;;;;;34.20;20.92;;;3.20;79.10;;;;;;4869345;29;20036;-93
2021/01/15 12:16:42;;;;;;;32.58;20.02;;;3.20;79.10;;;;;;4900270;29;20130;-92
2021/01/15 12:19:08;;;;;;;31.48;19.42;;;3.20;79.10;;;;;;4885002;29;20072;-91
2021/01/15 12:21:37;;;;;;;31.77;20.10;;;3.20;79.00;;;;;;4885258;29;20040;-91
2021/01/15 12:24:03;;;;;;;30.40;18.60;;;3.20;79.60;;;;;;4883887;29;20048;-93
2021/01/15 12:26:38;;;;;;;27.50;17.63;;;3.20;78.90;;;;;;4884341;29;20047;-92
2021/01/15 12:29:04;;;;;;;25.92;17.48;;;3.30;79.50;;;;;;4899408;29;20043;-91
2021/01/15 12:31:30;;;;;;;31.83;19.42;;;3.30;78.90;;;;;;4902854;29;20040;-91
2021/01/15 12:33:55;;;;;;;36.13;22.02;;;3.30;78.90;;;;;;4902972;29;20047;-91
2021/01/15 12:36:21;;;;;;;31.15;19.75;;;3.30;79.00;;;;;;4887839;29;20040;-90
2021/01/15 12:38:47;;;;;;;35.90;22.55;;;3.30;79.10;;;;;;4872215;29;20039;-91
2021/01/15 12:41:12;;;;;;;37.20;21.08;;;3.30;79.00;;;;;;4872141;29;20478;-91
2021/01/15 12:43:40;;;;;;;31.58;20.02;;;3.30;79.00;;;;;;4903328;29;20402;-91
2021/01/15 12:46:09;;;;;;;31.15;19.70;;;3.20;78.90;;;;;;4887812;29;20036;-90
2021/01/15 12:48:35;;;;;;;29.40;19.08;;;3.30;78.90;;;;;;4887722;29;20182;-90
2021/01/15 12:51:00;;;;;;;29.38;18.95;;;3.20;78.80;;;;;;4871704;29;20051;-90